sensor_id;sensor_type;location;lat;lon;timestamp;temperature;humidity
7666;DHT22;3875;46.562;4.898;2022-11-30T00:00:11;7.70;96.60
7666;DHT22;3875;46.562;4.898;2022-11-30T00:02:36;7.60;96.80
7666;DHT22;3875;46.562;4.898;2022-11-30T00:05:02;7.70;96.60
7666;DHT22;3875;46.562;4.898;2022-11-30T00:07:28;7.60;96.40
7666;DHT22;3875;46.562;4.898;2022-11-30T00:09:53;7.60;96.40
7666;DHT22;3875;46.562;4.898;2022-11-30T00:12:19;7.60;96.50
7666;DHT22;3875;46.562;4.898;2022-11-30T00:14:45;7.50;96.60
7666;DHT22;3875;46.562;4.898;2022-11-30T00:17:10;7.50;96.60
7666;DHT22;3875;46.562;4.898;2022-11-30T00:19:36;7.50;96.70
7666;DHT22;3875;46.562;4.898;2022-11-30T00:22:02;7.50;96.70
7666;DHT22;3875;46.562;4.898;2022-11-30T00:24:27;7.50;96.70
7666;DHT22;3875;46.562;4.898;2022-11-30T00:26:53;7.40;96.70
7666;DHT22;3875;46.562;4.898;2022-11-30T00:29:19;7.40;96.60
7666;DHT22;3875;46.562;4.898;2022-11-30T00:31:44;7.40;96.80
7666;DHT22;3875;46.562;4.898;2022-11-30T00:34:10;7.40;97.00
7666;DHT22;3875;46.562;4.898;2022-11-30T00:36:36;7.30;97.30
7666;DHT22;3875;46.562;4.898;2022-11-30T00:39:02;7.40;97.50
7666;DHT22;3875;46.562;4.898;2022-11-30T00:41:28;7.40;97.70
7666;DHT22;3875;46.562;4.898;2022-11-30T00:43:54;7.40;97.70
7666;DHT22;3875;46.562;4.898;2022-11-30T00:46:19;7.40;97.80
7666;DHT22;3875;46.562;4.898;2022-11-30T00:48:45;7.50;97.70
7666;DHT22;3875;46.562;4.898;2022-11-30T00:51:11;7.50;97.70
7666;DHT22;3875;46.562;4.898;2022-11-30T00:53:38;7.50;97.40
7666;DHT22;3875;46.562;4.898;2022-11-30T00:56:04;7.50;97.20
7666;DHT22;3875;46.562;4.898;2022-11-30T00:58:30;7.40;97.40
7666;DHT22;3875;46.562;4.898;2022-11-30T01:00:55;7.40;97.50
7666;DHT22;3875;46.562;4.898;2022-11-30T01:03:21;7.40;97.30
7666;DHT22;3875;46.562;4.898;2022-11-30T01:05:47;7.40;97.10
7666;DHT22;3875;46.562;4.898;2022-11-30T01:08:13;7.40;97.30
7666;DHT22;3875;46.562;4.898;2022-11-30T01:10:40;7.40;97.50
7666;DHT22;3875;46.562;4.898;2022-11-30T01:13:06;7.40;97.40
7666;DHT22;3875;46.562;4.898;2022-11-30T01:15:36;7.50;97.40
7666;DHT22;3875;46.562;4.898;2022-11-30T01:18:02;7.50;97.30
7666;DHT22;3875;46.562;4.898;2022-11-30T01:20:28;7.50;97.30
7666;DHT22;3875;46.562;4.898;2022-11-30T01:22:54;7.50;97.10
7666;DHT22;3875;46.562;4.898;2022-11-30T01:25:20;7.50;97.00
7666;DHT22;3875;46.562;4.898;2022-11-30T01:27:49;7.60;97.10
7666;DHT22;3875;46.562;4.898;2022-11-30T01:30:16;7.60;97.00
7666;DHT22;3875;46.562;4.898;2022-11-30T01:32:42;7.50;97.10
7666;DHT22;3875;46.562;4.898;2022-11-30T01:35:08;7.50;97.10
7666;DHT22;3875;46.562;4.898;2022-11-30T01:37:34;7.60;97.20
7666;DHT22;3875;46.562;4.898;2022-11-30T01:40:00;7.60;97.10
7666;DHT22;3875;46.562;4.898;2022-11-30T01:42:26;7.60;97.10
7666;DHT22;3875;46.562;4.898;2022-11-30T01:44:57;7.60;97.00
7666;DHT22;3875;46.562;4.898;2022-11-30T01:50:00;7.60;97.10
7666;DHT22;3875;46.562;4.898;2022-11-30T01:52:40;7.50;97.20
7666;DHT22;3875;46.562;4.898;2022-11-30T01:58:14;7.60;97.20
7666;DHT22;3875;46.562;4.898;2022-11-30T02:00:45;7.60;97.30
7666;DHT22;3875;46.562;4.898;2022-11-30T02:03:30;7.60;97.30
7666;DHT22;3875;46.562;4.898;2022-11-30T02:05:58;7.50;97.40
7666;DHT22;3875;46.562;4.898;2022-11-30T02:08:26;7.60;97.50
7666;DHT22;3875;46.562;4.898;2022-11-30T02:10:54;7.60;97.30
7666;DHT22;3875;46.562;4.898;2022-11-30T02:16:09;7.60;97.10
7666;DHT22;3875;46.562;4.898;2022-11-30T02:29:28;7.60;97.30
7666;DHT22;3875;46.562;4.898;2022-11-30T02:32:08;7.60;97.30
7666;DHT22;3875;46.562;4.898;2022-11-30T02:34:36;7.60;97.40
7666;DHT22;3875;46.562;4.898;2022-11-30T02:37:04;7.60;97.50
7666;DHT22;3875;46.562;4.898;2022-11-30T02:39:31;7.60;97.50
7666;DHT22;3875;46.562;4.898;2022-11-30T02:41:56;7.60;97.50
7666;DHT22;3875;46.562;4.898;2022-11-30T02:44:23;7.60;97.60
7666;DHT22;3875;46.562;4.898;2022-11-30T02:52:19;7.60;97.50
7666;DHT22;3875;46.562;4.898;2022-11-30T02:55:08;7.50;97.60
7666;DHT22;3875;46.562;4.898;2022-11-30T02:57:35;7.50;97.60
7666;DHT22;3875;46.562;4.898;2022-11-30T03:00:04;7.50;97.60
7666;DHT22;3875;46.562;4.898;2022-11-30T03:02:31;7.50;97.70
7666;DHT22;3875;46.562;4.898;2022-11-30T03:04:57;7.50;97.60
7666;DHT22;3875;46.562;4.898;2022-11-30T03:07:23;7.50;97.70
7666;DHT22;3875;46.562;4.898;2022-11-30T03:09:49;7.50;97.80
7666;DHT22;3875;46.562;4.898;2022-11-30T03:12:14;7.50;97.70
7666;DHT22;3875;46.562;4.898;2022-11-30T03:14:40;7.50;97.80
7666;DHT22;3875;46.562;4.898;2022-11-30T03:17:06;7.60;97.70
7666;DHT22;3875;46.562;4.898;2022-11-30T03:19:32;7.60;97.70
7666;DHT22;3875;46.562;4.898;2022-11-30T03:21:58;7.60;97.60
7666;DHT22;3875;46.562;4.898;2022-11-30T03:24:23;7.60;97.50
7666;DHT22;3875;46.562;4.898;2022-11-30T03:26:50;7.60;97.50
7666;DHT22;3875;46.562;4.898;2022-11-30T03:29:16;7.60;97.60
7666;DHT22;3875;46.562;4.898;2022-11-30T03:31:42;7.60;97.60
7666;DHT22;3875;46.562;4.898;2022-11-30T03:34:08;7.60;97.70
7666;DHT22;3875;46.562;4.898;2022-11-30T03:36:33;7.60;97.80
7666;DHT22;3875;46.562;4.898;2022-11-30T03:38:59;7.60;97.80
7666;DHT22;3875;46.562;4.898;2022-11-30T03:41:25;7.60;97.80
7666;DHT22;3875;46.562;4.898;2022-11-30T03:43:51;7.60;97.80
7666;DHT22;3875;46.562;4.898;2022-11-30T03:46:16;7.60;97.90
7666;DHT22;3875;46.562;4.898;2022-11-30T03:48:42;7.60;97.80
7666;DHT22;3875;46.562;4.898;2022-11-30T03:51:10;7.60;97.80
7666;DHT22;3875;46.562;4.898;2022-11-30T03:53:36;7.60;97.70
7666;DHT22;3875;46.562;4.898;2022-11-30T03:56:04;7.70;97.70
7666;DHT22;3875;46.562;4.898;2022-11-30T03:58:30;7.70;97.70
7666;DHT22;3875;46.562;4.898;2022-11-30T04:01:00;7.70;97.60
7666;DHT22;3875;46.562;4.898;2022-11-30T04:03:26;7.70;97.50
7666;DHT22;3875;46.562;4.898;2022-11-30T04:05:52;7.70;97.50
7666;DHT22;3875;46.562;4.898;2022-11-30T04:08:18;7.70;97.70
7666;DHT22;3875;46.562;4.898;2022-11-30T04:10:46;7.70;97.70
7666;DHT22;3875;46.562;4.898;2022-11-30T04:13:12;7.70;97.70
7666;DHT22;3875;46.562;4.898;2022-11-30T04:15:38;7.70;97.60
7666;DHT22;3875;46.562;4.898;2022-11-30T04:18:04;7.70;97.70
7666;DHT22;3875;46.562;4.898;2022-11-30T04:20:30;7.70;97.70
7666;DHT22;3875;46.562;4.898;2022-11-30T04:22:56;7.70;97.70
7666;DHT22;3875;46.562;4.898;2022-11-30T04:25:22;7.80;97.70
7666;DHT22;3875;46.562;4.898;2022-11-30T04:27:48;7.80;97.60
7666;DHT22;3875;46.562;4.898;2022-11-30T04:30:14;7.80;97.60
7666;DHT22;3875;46.562;4.898;2022-11-30T04:32:40;7.80;97.70
7666;DHT22;3875;46.562;4.898;2022-11-30T04:35:07;7.80;97.70
7666;DHT22;3875;46.562;4.898;2022-11-30T04:37:33;7.80;97.70
7666;DHT22;3875;46.562;4.898;2022-11-30T04:39:59;7.80;97.80
7666;DHT22;3875;46.562;4.898;2022-11-30T04:42:24;7.80;97.90
7666;DHT22;3875;46.562;4.898;2022-11-30T04:44:50;7.80;97.90
7666;DHT22;3875;46.562;4.898;2022-11-30T04:47:16;7.80;97.80
7666;DHT22;3875;46.562;4.898;2022-11-30T04:49:42;7.80;97.80
7666;DHT22;3875;46.562;4.898;2022-11-30T04:52:07;7.80;97.90
7666;DHT22;3875;46.562;4.898;2022-11-30T04:54:33;7.80;97.90
7666;DHT22;3875;46.562;4.898;2022-11-30T04:56:58;7.80;98.00
7666;DHT22;3875;46.562;4.898;2022-11-30T04:59:24;7.80;97.90
7666;DHT22;3875;46.562;4.898;2022-11-30T05:01:50;7.90;97.70
7666;DHT22;3875;46.562;4.898;2022-11-30T05:04:15;7.90;97.80
7666;DHT22;3875;46.562;4.898;2022-11-30T05:06:41;7.90;97.80
7666;DHT22;3875;46.562;4.898;2022-11-30T05:09:07;7.90;97.80
7666;DHT22;3875;46.562;4.898;2022-11-30T05:11:33;7.90;97.90
7666;DHT22;3875;46.562;4.898;2022-11-30T05:13:59;7.90;97.80
7666;DHT22;3875;46.562;4.898;2022-11-30T05:16:24;7.90;97.90
7666;DHT22;3875;46.562;4.898;2022-11-30T05:18:50;7.90;97.90
7666;DHT22;3875;46.562;4.898;2022-11-30T05:21:16;7.90;97.80
7666;DHT22;3875;46.562;4.898;2022-11-30T05:23:42;7.90;97.70
7666;DHT22;3875;46.562;4.898;2022-11-30T05:26:08;7.90;97.80
7666;DHT22;3875;46.562;4.898;2022-11-30T05:28:34;7.90;97.70
7666;DHT22;3875;46.562;4.898;2022-11-30T05:31:04;7.90;97.60
7666;DHT22;3875;46.562;4.898;2022-11-30T05:33:29;7.80;97.60
7666;DHT22;3875;46.562;4.898;2022-11-30T05:35:55;7.80;97.60
7666;DHT22;3875;46.562;4.898;2022-11-30T05:38:21;7.80;97.60
7666;DHT22;3875;46.562;4.898;2022-11-30T05:40:46;7.80;97.80
7666;DHT22;3875;46.562;4.898;2022-11-30T05:43:12;7.80;97.80
7666;DHT22;3875;46.562;4.898;2022-11-30T05:45:38;7.70;98.00
7666;DHT22;3875;46.562;4.898;2022-11-30T05:48:04;7.80;98.00
7666;DHT22;3875;46.562;4.898;2022-11-30T05:50:29;7.80;98.00
7666;DHT22;3875;46.562;4.898;2022-11-30T05:52:56;7.80;98.10
7666;DHT22;3875;46.562;4.898;2022-11-30T05:55:22;7.80;98.00
7666;DHT22;3875;46.562;4.898;2022-11-30T05:57:48;7.80;98.20
7666;DHT22;3875;46.562;4.898;2022-11-30T06:00:14;7.80;98.30
7666;DHT22;3875;46.562;4.898;2022-11-30T06:02:40;7.90;98.30
7666;DHT22;3875;46.562;4.898;2022-11-30T06:05:06;7.80;98.30
7666;DHT22;3875;46.562;4.898;2022-11-30T06:07:32;7.90;98.20
7666;DHT22;3875;46.562;4.898;2022-11-30T06:09:58;7.90;98.30
7666;DHT22;3875;46.562;4.898;2022-11-30T06:12:23;7.90;98.30
7666;DHT22;3875;46.562;4.898;2022-11-30T06:14:49;8.00;98.10
7666;DHT22;3875;46.562;4.898;2022-11-30T06:17:17;8.00;98.00
7666;DHT22;3875;46.562;4.898;2022-11-30T06:19:43;8.00;97.90
7666;DHT22;3875;46.562;4.898;2022-11-30T06:22:09;8.00;98.00
7666;DHT22;3875;46.562;4.898;2022-11-30T06:24:34;8.00;98.00
7666;DHT22;3875;46.562;4.898;2022-11-30T06:27:00;8.00;97.90
7666;DHT22;3875;46.562;4.898;2022-11-30T06:29:26;8.00;97.80
7666;DHT22;3875;46.562;4.898;2022-11-30T06:31:51;8.00;97.90
7666;DHT22;3875;46.562;4.898;2022-11-30T06:34:17;8.00;97.90
7666;DHT22;3875;46.562;4.898;2022-11-30T06:36:43;8.00;97.90
7666;DHT22;3875;46.562;4.898;2022-11-30T06:39:09;8.00;97.90
7666;DHT22;3875;46.562;4.898;2022-11-30T06:41:35;8.00;97.90
7666;DHT22;3875;46.562;4.898;2022-11-30T06:44:01;8.00;98.00
7666;DHT22;3875;46.562;4.898;2022-11-30T06:46:27;8.00;98.10
7666;DHT22;3875;46.562;4.898;2022-11-30T06:48:52;8.00;98.10
7666;DHT22;3875;46.562;4.898;2022-11-30T06:51:18;8.00;98.10
7666;DHT22;3875;46.562;4.898;2022-11-30T06:53:45;8.00;98.10
7666;DHT22;3875;46.562;4.898;2022-11-30T06:56:11;8.00;98.20
7666;DHT22;3875;46.562;4.898;2022-11-30T06:58:38;8.00;98.10
7666;DHT22;3875;46.562;4.898;2022-11-30T07:01:05;8.00;98.10
7666;DHT22;3875;46.562;4.898;2022-11-30T07:03:32;8.10;98.10
7666;DHT22;3875;46.562;4.898;2022-11-30T07:05:57;8.10;98.00
7666;DHT22;3875;46.562;4.898;2022-11-30T07:08:23;8.00;98.00
7666;DHT22;3875;46.562;4.898;2022-11-30T07:10:49;8.00;98.10
7666;DHT22;3875;46.562;4.898;2022-11-30T07:13:17;8.00;98.20
7666;DHT22;3875;46.562;4.898;2022-11-30T07:15:45;8.00;98.30
7666;DHT22;3875;46.562;4.898;2022-11-30T07:18:11;8.00;98.30
7666;DHT22;3875;46.562;4.898;2022-11-30T07:20:37;8.00;98.30
7666;DHT22;3875;46.562;4.898;2022-11-30T07:23:04;8.00;98.30
7666;DHT22;3875;46.562;4.898;2022-11-30T07:25:52;8.00;98.20
7666;DHT22;3875;46.562;4.898;2022-11-30T07:28:31;8.10;98.20
7666;DHT22;3875;46.562;4.898;2022-11-30T07:30:57;8.10;98.10
7666;DHT22;3875;46.562;4.898;2022-11-30T07:33:22;8.10;98.10
7666;DHT22;3875;46.562;4.898;2022-11-30T07:35:48;8.10;98.20
7666;DHT22;3875;46.562;4.898;2022-11-30T07:38:14;8.10;98.20
7666;DHT22;3875;46.562;4.898;2022-11-30T07:40:39;8.20;98.10
7666;DHT22;3875;46.562;4.898;2022-11-30T07:43:05;8.20;98.00
7666;DHT22;3875;46.562;4.898;2022-11-30T07:45:30;8.20;98.10
7666;DHT22;3875;46.562;4.898;2022-11-30T07:47:58;8.20;98.30
7666;DHT22;3875;46.562;4.898;2022-11-30T07:50:24;8.20;98.30
7666;DHT22;3875;46.562;4.898;2022-11-30T07:52:49;8.20;98.40
7666;DHT22;3875;46.562;4.898;2022-11-30T07:55:15;8.30;98.40
7666;DHT22;3875;46.562;4.898;2022-11-30T07:57:42;8.30;98.20
7666;DHT22;3875;46.562;4.898;2022-11-30T08:00:08;8.30;98.20
7666;DHT22;3875;46.562;4.898;2022-11-30T08:02:34;8.30;98.10
7666;DHT22;3875;46.562;4.898;2022-11-30T08:04:59;8.40;98.20
7666;DHT22;3875;46.562;4.898;2022-11-30T08:07:25;8.40;98.10
7666;DHT22;3875;46.562;4.898;2022-11-30T08:09:51;8.50;98.10
7666;DHT22;3875;46.562;4.898;2022-11-30T08:12:16;8.50;97.90
7666;DHT22;3875;46.562;4.898;2022-11-30T08:14:42;8.50;98.00
7666;DHT22;3875;46.562;4.898;2022-11-30T08:17:08;8.60;97.90
7666;DHT22;3875;46.562;4.898;2022-11-30T08:19:34;8.60;97.30
7666;DHT22;3875;46.562;4.898;2022-11-30T08:21:59;8.60;97.60
7666;DHT22;3875;46.562;4.898;2022-11-30T08:24:25;8.60;97.50
7666;DHT22;3875;46.562;4.898;2022-11-30T08:26:51;8.60;97.30
7666;DHT22;3875;46.562;4.898;2022-11-30T08:29:19;8.60;96.90
7666;DHT22;3875;46.562;4.898;2022-11-30T08:31:45;8.60;97.30
7666;DHT22;3875;46.562;4.898;2022-11-30T08:34:12;8.60;97.30
7666;DHT22;3875;46.562;4.898;2022-11-30T08:36:39;8.60;97.30
7666;DHT22;3875;46.562;4.898;2022-11-30T08:39:07;8.60;97.10
7666;DHT22;3875;46.562;4.898;2022-11-30T08:41:33;8.60;97.30
7666;DHT22;3875;46.562;4.898;2022-11-30T08:43:59;8.50;97.30
7666;DHT22;3875;46.562;4.898;2022-11-30T08:46:26;8.50;97.30
7666;DHT22;3875;46.562;4.898;2022-11-30T08:48:52;8.50;97.50
7666;DHT22;3875;46.562;4.898;2022-11-30T08:51:19;8.50;97.50
7666;DHT22;3875;46.562;4.898;2022-11-30T08:53:46;8.50;97.50
7666;DHT22;3875;46.562;4.898;2022-11-30T08:56:17;8.50;97.50
7666;DHT22;3875;46.562;4.898;2022-11-30T08:58:43;8.50;97.60
7666;DHT22;3875;46.562;4.898;2022-11-30T09:01:12;8.50;97.50
7666;DHT22;3875;46.562;4.898;2022-11-30T09:03:39;8.50;97.30
7666;DHT22;3875;46.562;4.898;2022-11-30T09:06:10;8.60;97.30
7666;DHT22;3875;46.562;4.898;2022-11-30T09:08:41;8.60;97.30
7666;DHT22;3875;46.562;4.898;2022-11-30T09:11:28;8.70;97.00
7666;DHT22;3875;46.562;4.898;2022-11-30T09:13:56;8.70;96.90
7666;DHT22;3875;46.562;4.898;2022-11-30T09:16:23;8.70;97.10
7666;DHT22;3875;46.562;4.898;2022-11-30T09:18:49;8.80;96.80
7666;DHT22;3875;46.562;4.898;2022-11-30T09:21:18;8.80;96.60
7666;DHT22;3875;46.562;4.898;2022-11-30T09:23:45;8.70;96.30
7666;DHT22;3875;46.562;4.898;2022-11-30T09:26:13;8.70;96.40
7666;DHT22;3875;46.562;4.898;2022-11-30T09:28:39;8.70;96.70
7666;DHT22;3875;46.562;4.898;2022-11-30T09:31:23;8.70;96.50
7666;DHT22;3875;46.562;4.898;2022-11-30T09:33:49;8.80;96.60
7666;DHT22;3875;46.562;4.898;2022-11-30T09:36:18;8.80;96.40
7666;DHT22;3875;46.562;4.898;2022-11-30T09:38:45;8.70;96.30
7666;DHT22;3875;46.562;4.898;2022-11-30T09:47:01;8.70;96.20
7666;DHT22;3875;46.562;4.898;2022-11-30T09:49:43;8.80;96.10
7666;DHT22;3875;46.562;4.898;2022-11-30T09:52:16;8.80;96.20
7666;DHT22;3875;46.562;4.898;2022-11-30T09:54:44;8.90;95.70
7666;DHT22;3875;46.562;4.898;2022-11-30T10:00:01;9.10;95.60
7666;DHT22;3875;46.562;4.898;2022-11-30T10:02:30;9.20;94.70
7666;DHT22;3875;46.562;4.898;2022-11-30T10:04:57;9.20;95.20
7666;DHT22;3875;46.562;4.898;2022-11-30T10:10:41;9.30;94.70
7666;DHT22;3875;46.562;4.898;2022-11-30T10:13:36;9.40;94.60
7666;DHT22;3875;46.562;4.898;2022-11-30T10:19:52;9.40;94.50
7666;DHT22;3875;46.562;4.898;2022-11-30T10:25:21;9.50;93.50
7666;DHT22;3875;46.562;4.898;2022-11-30T10:27:54;9.40;93.60
7666;DHT22;3875;46.562;4.898;2022-11-30T10:30:31;9.20;93.60
7666;DHT22;3875;46.562;4.898;2022-11-30T10:33:02;9.20;93.90
7666;DHT22;3875;46.562;4.898;2022-11-30T10:35:50;9.20;93.70
7666;DHT22;3875;46.562;4.898;2022-11-30T10:38:18;9.20;93.90
7666;DHT22;3875;46.562;4.898;2022-11-30T10:43:45;9.30;94.20
7666;DHT22;3875;46.562;4.898;2022-11-30T10:46:21;9.30;93.80
7666;DHT22;3875;46.562;4.898;2022-11-30T10:49:12;9.40;93.60
7666;DHT22;3875;46.562;4.898;2022-11-30T10:51:42;9.50;93.90
7666;DHT22;3875;46.562;4.898;2022-11-30T10:54:17;9.50;93.50
7666;DHT22;3875;46.562;4.898;2022-11-30T10:56:45;9.60;93.50
7666;DHT22;3875;46.562;4.898;2022-11-30T10:59:28;9.70;93.40
7666;DHT22;3875;46.562;4.898;2022-11-30T11:01:58;9.70;93.00
7666;DHT22;3875;46.562;4.898;2022-11-30T11:04:25;9.70;92.80
7666;DHT22;3875;46.562;4.898;2022-11-30T11:07:08;9.80;92.90
7666;DHT22;3875;46.562;4.898;2022-11-30T11:12:03;10.20;92.80
7666;DHT22;3875;46.562;4.898;2022-11-30T11:14:29;10.30;91.70
7666;DHT22;3875;46.562;4.898;2022-11-30T11:19:46;10.40;90.80
7666;DHT22;3875;46.562;4.898;2022-11-30T11:24:41;10.40;90.30
7666;DHT22;3875;46.562;4.898;2022-11-30T11:27:38;10.40;90.40
7666;DHT22;3875;46.562;4.898;2022-11-30T11:30:26;10.40;89.50
7666;DHT22;3875;46.562;4.898;2022-11-30T11:35:38;10.40;90.00
7666;DHT22;3875;46.562;4.898;2022-11-30T11:38:17;10.40;89.90
7666;DHT22;3875;46.562;4.898;2022-11-30T11:40:54;10.40;89.50
7666;DHT22;3875;46.562;4.898;2022-11-30T11:43:20;10.40;90.50
7666;DHT22;3875;46.562;4.898;2022-11-30T11:45:53;10.40;90.50
7666;DHT22;3875;46.562;4.898;2022-11-30T11:48:55;10.30;90.40
7666;DHT22;3875;46.562;4.898;2022-11-30T11:51:36;10.10;90.00
7666;DHT22;3875;46.562;4.898;2022-11-30T11:54:23;10.00;90.50
7666;DHT22;3875;46.562;4.898;2022-11-30T11:56:48;10.10;91.00
7666;DHT22;3875;46.562;4.898;2022-11-30T11:59:16;10.10;90.60
7666;DHT22;3875;46.562;4.898;2022-11-30T12:01:54;10.20;90.40
7666;DHT22;3875;46.562;4.898;2022-11-30T12:04:35;10.20;90.00
7666;DHT22;3875;46.562;4.898;2022-11-30T12:07:08;10.20;89.90
7666;DHT22;3875;46.562;4.898;2022-11-30T12:09:40;10.30;90.30
7666;DHT22;3875;46.562;4.898;2022-11-30T12:12:14;10.50;89.60
7666;DHT22;3875;46.562;4.898;2022-11-30T12:14:40;10.40;89.20
7666;DHT22;3875;46.562;4.898;2022-11-30T12:30:40;10.00;90.20
7666;DHT22;3875;46.562;4.898;2022-11-30T12:44:30;10.10;89.70
7666;DHT22;3875;46.562;4.898;2022-11-30T12:47:26;10.20;89.50
7666;DHT22;3875;46.562;4.898;2022-11-30T12:50:21;10.40;89.40
7666;DHT22;3875;46.562;4.898;2022-11-30T12:55:46;10.60;89.10
7666;DHT22;3875;46.562;4.898;2022-11-30T12:58:33;10.70;88.70
7666;DHT22;3875;46.562;4.898;2022-11-30T13:06:23;10.50;87.80
7666;DHT22;3875;46.562;4.898;2022-11-30T13:11:46;10.40;87.90
7666;DHT22;3875;46.562;4.898;2022-11-30T13:14:22;10.20;87.50
7666;DHT22;3875;46.562;4.898;2022-11-30T13:16:51;10.20;88.40
7666;DHT22;3875;46.562;4.898;2022-11-30T13:22:45;10.00;88.50
7666;DHT22;3875;46.562;4.898;2022-11-30T13:28:24;9.80;88.90
7666;DHT22;3875;46.562;4.898;2022-11-30T13:34:21;9.80;89.50
7666;DHT22;3875;46.562;4.898;2022-11-30T13:36:36;9.80;89.20
7666;DHT22;3875;46.562;4.898;2022-11-30T13:41:39;9.70;90.00
7666;DHT22;3875;46.562;4.898;2022-11-30T13:46:50;9.90;90.00
7666;DHT22;3875;46.562;4.898;2022-11-30T13:49:22;9.90;89.90
7666;DHT22;3875;46.562;4.898;2022-11-30T13:51:52;10.00;89.30
7666;DHT22;3875;46.562;4.898;2022-11-30T13:54:39;10.00;89.30
7666;DHT22;3875;46.562;4.898;2022-11-30T14:00:00;9.80;89.00
7666;DHT22;3875;46.562;4.898;2022-11-30T14:10:35;9.80;89.10
7666;DHT22;3875;46.562;4.898;2022-11-30T14:13:28;9.70;89.20
7666;DHT22;3875;46.562;4.898;2022-11-30T14:15:59;9.70;89.30
7666;DHT22;3875;46.562;4.898;2022-11-30T14:18:38;9.60;89.40
7666;DHT22;3875;46.562;4.898;2022-11-30T14:21:21;9.60;89.20
7666;DHT22;3875;46.562;4.898;2022-11-30T14:23:58;9.60;89.10
7666;DHT22;3875;46.562;4.898;2022-11-30T14:26:40;9.60;89.00
7666;DHT22;3875;46.562;4.898;2022-11-30T14:29:20;9.50;88.60
7666;DHT22;3875;46.562;4.898;2022-11-30T14:37:24;9.50;89.10
7666;DHT22;3875;46.562;4.898;2022-11-30T14:39:52;9.50;88.90
7666;DHT22;3875;46.562;4.898;2022-11-30T14:42:25;9.50;88.70
7666;DHT22;3875;46.562;4.898;2022-11-30T14:44:52;9.50;89.00
7666;DHT22;3875;46.562;4.898;2022-11-30T14:47:25;9.50;89.00
7666;DHT22;3875;46.562;4.898;2022-11-30T14:49:52;9.50;89.10
7666;DHT22;3875;46.562;4.898;2022-11-30T14:52:43;9.50;89.20
7666;DHT22;3875;46.562;4.898;2022-11-30T14:55:44;9.50;89.00
7666;DHT22;3875;46.562;4.898;2022-11-30T14:59:34;9.40;88.60
7666;DHT22;3875;46.562;4.898;2022-11-30T15:01:29;9.30;88.80
7666;DHT22;3875;46.562;4.898;2022-11-30T15:04:02;9.30;89.10
7666;DHT22;3875;46.562;4.898;2022-11-30T15:06:31;9.30;88.70
7666;DHT22;3875;46.562;4.898;2022-11-30T15:08:59;9.20;88.80
7666;DHT22;3875;46.562;4.898;2022-11-30T15:11:26;9.20;88.90
7666;DHT22;3875;46.562;4.898;2022-11-30T15:13:54;9.20;88.90
7666;DHT22;3875;46.562;4.898;2022-11-30T15:18:51;9.10;89.10
7666;DHT22;3875;46.562;4.898;2022-11-30T15:21:25;9.10;89.40
7666;DHT22;3875;46.562;4.898;2022-11-30T15:23:53;9.00;89.40
7666;DHT22;3875;46.562;4.898;2022-11-30T15:29:01;9.00;89.50
7666;DHT22;3875;46.562;4.898;2022-11-30T15:31:37;9.10;89.50
7666;DHT22;3875;46.562;4.898;2022-11-30T15:34:04;9.00;89.60
7666;DHT22;3875;46.562;4.898;2022-11-30T15:36:36;9.00;89.60
7666;DHT22;3875;46.562;4.898;2022-11-30T15:39:06;9.00;89.50
7666;DHT22;3875;46.562;4.898;2022-11-30T15:41:33;9.00;89.50
7666;DHT22;3875;46.562;4.898;2022-11-30T15:43:59;9.00;89.50
7666;DHT22;3875;46.562;4.898;2022-11-30T15:46:31;8.90;89.80
7666;DHT22;3875;46.562;4.898;2022-11-30T15:49:22;8.90;90.00
7666;DHT22;3875;46.562;4.898;2022-11-30T15:52:03;8.90;90.00
7666;DHT22;3875;46.562;4.898;2022-11-30T15:54:49;8.80;90.20
7666;DHT22;3875;46.562;4.898;2022-11-30T15:57:20;8.70;90.30
7666;DHT22;3875;46.562;4.898;2022-11-30T16:00:04;8.70;90.60
7666;DHT22;3875;46.562;4.898;2022-11-30T16:02:33;8.60;90.70
7666;DHT22;3875;46.562;4.898;2022-11-30T16:05:05;8.60;90.80
7666;DHT22;3875;46.562;4.898;2022-11-30T16:07:36;8.60;91.10
7666;DHT22;3875;46.562;4.898;2022-11-30T16:10:26;8.60;91.20
7666;DHT22;3875;46.562;4.898;2022-11-30T16:12:54;8.60;91.20
7666;DHT22;3875;46.562;4.898;2022-11-30T16:15:25;8.50;91.30
7666;DHT22;3875;46.562;4.898;2022-11-30T16:17:55;8.50;91.40
7666;DHT22;3875;46.562;4.898;2022-11-30T16:20:21;8.50;91.50
7666;DHT22;3875;46.562;4.898;2022-11-30T16:22:48;8.50;91.50
7666;DHT22;3875;46.562;4.898;2022-11-30T16:25:16;8.50;91.60
7666;DHT22;3875;46.562;4.898;2022-11-30T16:27:42;8.50;91.30
7666;DHT22;3875;46.562;4.898;2022-11-30T16:30:28;8.50;91.60
7666;DHT22;3875;46.562;4.898;2022-11-30T16:32:54;8.50;91.60
7666;DHT22;3875;46.562;4.898;2022-11-30T16:35:33;8.50;91.60
7666;DHT22;3875;46.562;4.898;2022-11-30T16:37:59;8.40;91.70
7666;DHT22;3875;46.562;4.898;2022-11-30T16:40:25;8.40;91.70
7666;DHT22;3875;46.562;4.898;2022-11-30T16:42:51;8.40;91.70
7666;DHT22;3875;46.562;4.898;2022-11-30T16:45:20;8.40;91.70
7666;DHT22;3875;46.562;4.898;2022-11-30T16:47:46;8.40;91.70
7666;DHT22;3875;46.562;4.898;2022-11-30T16:50:13;8.40;91.90
7666;DHT22;3875;46.562;4.898;2022-11-30T16:52:39;8.40;91.70
7666;DHT22;3875;46.562;4.898;2022-11-30T16:55:13;8.40;91.70
7666;DHT22;3875;46.562;4.898;2022-11-30T16:57:39;8.40;91.70
7666;DHT22;3875;46.562;4.898;2022-11-30T17:00:06;8.40;91.70
7666;DHT22;3875;46.562;4.898;2022-11-30T17:02:33;8.40;91.90
7666;DHT22;3875;46.562;4.898;2022-11-30T17:05:00;8.40;92.00
7666;DHT22;3875;46.562;4.898;2022-11-30T17:07:26;8.40;92.10
7666;DHT22;3875;46.562;4.898;2022-11-30T17:09:51;8.30;92.00
7666;DHT22;3875;46.562;4.898;2022-11-30T17:12:17;8.30;92.10
7666;DHT22;3875;46.562;4.898;2022-11-30T17:14:43;8.30;92.10
7666;DHT22;3875;46.562;4.898;2022-11-30T17:17:08;8.30;92.00
7666;DHT22;3875;46.562;4.898;2022-11-30T17:19:34;8.30;92.00
7666;DHT22;3875;46.562;4.898;2022-11-30T17:22:00;8.30;92.00
7666;DHT22;3875;46.562;4.898;2022-11-30T17:24:27;8.30;92.10
7666;DHT22;3875;46.562;4.898;2022-11-30T17:26:53;8.30;92.20
7666;DHT22;3875;46.562;4.898;2022-11-30T17:29:18;8.30;92.00
7666;DHT22;3875;46.562;4.898;2022-11-30T17:31:44;8.30;92.00
7666;DHT22;3875;46.562;4.898;2022-11-30T17:34:10;8.30;92.20
7666;DHT22;3875;46.562;4.898;2022-11-30T17:36:35;8.30;92.10
7666;DHT22;3875;46.562;4.898;2022-11-30T17:39:06;8.30;92.00
7666;DHT22;3875;46.562;4.898;2022-11-30T17:41:32;8.30;92.20
7666;DHT22;3875;46.562;4.898;2022-11-30T17:43:57;8.30;92.30
7666;DHT22;3875;46.562;4.898;2022-11-30T17:46:23;8.30;92.40
7666;DHT22;3875;46.562;4.898;2022-11-30T17:48:49;8.30;92.20
7666;DHT22;3875;46.562;4.898;2022-11-30T17:51:15;8.30;92.20
7666;DHT22;3875;46.562;4.898;2022-11-30T17:53:41;8.40;92.20
7666;DHT22;3875;46.562;4.898;2022-11-30T17:56:11;8.40;92.20
7666;DHT22;3875;46.562;4.898;2022-11-30T17:58:38;8.40;92.20
7666;DHT22;3875;46.562;4.898;2022-11-30T18:01:14;8.40;92.30
7666;DHT22;3875;46.562;4.898;2022-11-30T18:03:39;8.30;92.30
7666;DHT22;3875;46.562;4.898;2022-11-30T18:06:05;8.30;92.60
7666;DHT22;3875;46.562;4.898;2022-11-30T18:08:31;8.30;92.60
7666;DHT22;3875;46.562;4.898;2022-11-30T18:10:57;8.40;92.70
7666;DHT22;3875;46.562;4.898;2022-11-30T18:13:23;8.30;92.70
7666;DHT22;3875;46.562;4.898;2022-11-30T18:15:49;8.30;92.90
7666;DHT22;3875;46.562;4.898;2022-11-30T18:18:15;8.30;93.00
7666;DHT22;3875;46.562;4.898;2022-11-30T18:20:40;8.30;93.10
7666;DHT22;3875;46.562;4.898;2022-11-30T18:23:06;8.30;93.10
7666;DHT22;3875;46.562;4.898;2022-11-30T18:25:32;8.30;93.20
7666;DHT22;3875;46.562;4.898;2022-11-30T18:27:59;8.30;93.40
7666;DHT22;3875;46.562;4.898;2022-11-30T18:30:25;8.30;93.60
7666;DHT22;3875;46.562;4.898;2022-11-30T18:32:51;8.30;93.70
7666;DHT22;3875;46.562;4.898;2022-11-30T18:35:16;8.30;93.70
7666;DHT22;3875;46.562;4.898;2022-11-30T18:37:42;8.30;93.90